Terminal Aerodrome Forecast
Issued by NWS

Home | Current Version | Previous Version | Text Only | Print | Product List | Glossary On
Versions: 1 2 3 4 5 6 7 8 9 10 11 12 13 14 15 16 17 18 19 20 21 22 23 24 25 26 27 28 29 30
442
FTUS43 KBIS 140528
TAFDIK
TAF
KDIK 140528Z 1406/1506 29019G28KT P6SM SCT008 BKN015 OVC035
      TEMPO 1406/1409 BKN008 OVC015
     FM141000 29015G23KT P6SM BKN025
     FM141200 29014KT P6SM BKN035
     FM141400 29013KT P6SM SCT060
     FM141900 28013KT P6SM BKN120
     FM150400 28011KT P6SM SCT090=

USA.gov is the U.S. government's official web portal to all federal, state and local government web resources and services.